Welcome to our new website - Welkom op onze vernieuwde website - Bienvenue sur notre nouveau site web - Willkommen auf unserer neuen Website
Check our progress frequently. Prüfen Sie unsere Fortschritte regelmäßig. Consultez notre progression fréquemment. Komt u straks nog eens

KNMI Weersverwachting is alleen beschikbaar in de Nederlandse Taal, Ongeacht welke taal u kiest.
KNMI weather forecast is only available in the Dutch language, No matter what language you choose.



Alle bezoekers van deze website, Fijne kerstdagen en de beste wensen voor 2020, All visitors to this website, Merry Christmas and best wishes for 2020.




Meteo Oudkarspel - De weer weet site voor Langedijk

Blijf op de hoogte van het actuele weer, Keep up to date with the current weather.



Lokaal brandgevaar
CBI


Regionaal natuur brand risico: Meer informatie


Mijn Webcam 1 Meer informatie My webcam


Mijn Webcam 2 Meer informatie My webcam 2


Onweer radar Meer informatie blitzortung!


Regen radar Meer informatie rain snow radar


Bezoek onze andere website:

Template - Davis WeatherLink Version
Vantage Veu

Template - Meteotemplate

Template - HomeWeatherStation

PDøROK Multimedia

Meteo Broek Op Langedijk

Lief LangedijkLief Langedijk

Dé fietsenmaker van Langedijk en omstrekenAxel Noort dé fietsenmaker

Ijsvereniging Volharding

Meteo Tuitjenhorn

Meteo Delfzijl

Meteo SauwerdMeteo Sauwerd

WeerstationMeteo Sauwerd

Weerstation Noordbergum

Weerstation ParkstadWeerstation Parkstad

Norderney



Het weer levert geen direct gevaar op.    Er zijn geen waarschuwingen afgegeven.

METAR rapporten vliegvelden

   
EHKD - De Kooy (navy), Netherlands
Afstand tot: N 23 km
Gewijzigd: 21-Jan-2020 15:25
Bewolking  
Bewolking  
   Wind: Westen 20.4 km/h
Wind: Westen 20.4 km/h
Temperatuur: 7°C
Voelt als: 3°C
Dauwpunt: 4°C
Vochtigheid: 81%
Barometer: 1039 hPa
Bewolking: Bewolking
Zicht: meer dan 10 km
Bewolking: Bewolking 1500 ft
EHKD 211425Z AUTO 27011KT 9999 OVC015 07/04 Q1039 WHT 25010KT 9999 BKN015 TEMPO BKN012
EHAM - Amsterdam/Schiph, Netherlands
Afstand tot: Z 44 km
Gewijzigd: 21-Jan-2020 15:25
Partieel, Mist, Grotendeels bewolkt  
Partieel, Mist, Grotendeels bewolkt  
   Wind: ZZW 14.8 km/h
Wind: ZZW 14.8 km/h
Temperatuur: 4°C
Voelt als: 1°C
Dauwpunt: 4°C
Vochtigheid: 100%
Barometer: 1040 hPa
Bewolking: Grotendeels bewolkt
Zicht: 2 km
Bewolking: Gedeeltelijk bewolkt 100 ft,
Grotendeels bewolkt 200 ft
EHAM 211425Z 21008KT 180V240 1700 0700NW R18C/0900N R27/1600N R18R/0650N R06/P2000N PRFG SCT001 BKN002 04/04 Q1040 NOSIG
EHQE - Hoorn-A Sea, Netherlands
Afstand tot: WNW 50 km
Gewijzigd: 21-Jan-2020 15:25
Bewolking  
Bewolking  
   Wind: ZW 24.1 km/h
Wind: ZW 24.1 km/h
Temperatuur: 7°C
Voelt als: 3°C
Dauwpunt: 3°C
Vochtigheid: 76%
Barometer: 1039 hPa
Bewolking: Bewolking
Zicht: meer dan 10 km
Bewolking: Gedeeltelijk bewolkt 1200 ft,
Bewolking 1400 ft
EHQE 211425Z AUTO 22013KT 9999 SCT012 OVC014 07/03 Q1039
EHVL - Vlieland Island, Netherlands
Afstand tot: N 58 km
Gewijzigd: 21-Jan-2020 15:39
Bewolking  
Bewolking  
   Wind: Westen 22.2 km/h
Wind: Westen 22.2 km/h
Temperatuur: 6°C
Voelt als: 2°C
Dauwpunt: 4°C
Vochtigheid: 87%
Barometer: 1039 hPa
Bewolking: Bewolking
Zicht: meer dan 10 km
Bewolking: Bewolking 1500 ft
EHVL 211439Z AUTO 26012KT 9999 OVC015 06/04 Q1039 WHT
EHLW - Leeuwarden Rnlaf, Netherlands
Afstand tot: NO 85 km
Gewijzigd: 21-Jan-2020 15:25
Bewolking  
Bewolking  
   Wind: Westen 16.7 km/h
Wind: Westen 16.7 km/h
Temperatuur: 6°C
Voelt als: 3°C
Dauwpunt: 4°C
Vochtigheid: 87%
Barometer: 1039 hPa
Bewolking: Bewolking
Zicht: meer dan 10 km
Bewolking: Grotendeels bewolkt 1500 ft,
Bewolking 1800 ft
EHLW 211425Z AUTO 27009KT 9999 BKN015 OVC018 06/04 Q1039 WHT 27010KT 9999 BKN015 RMK R23
EHRD - Rotterdam Airpor, Netherlands
Afstand tot: ZZW 88 km
Gewijzigd: 21-Jan-2020 15:25
Nevel, Bewolking  
Nevel, Bewolking  
   Wind: WZW 9.3 km/h
Wind: WZW 9.3 km/h
Temperatuur: 3°C
Voelt als: 1°C
Dauwpunt: 3°C
Vochtigheid: 100%
Barometer: 1041 hPa
Bewolking: Bewolking
Zicht: 2 km
Bewolking: Bewolking 200 ft
EHRD 211425Z AUTO 24005KT 210V270 1800 BR OVC002 03/03 Q1041 NOSIG
EHKV - K14-Fa-1c Sea, Netherlands
Afstand tot: NW 100 km
Gewijzigd: 21-Jan-2020 15:25
Bewolking  
Bewolking  
   Wind: varieert 13 km/h
Wind: varieert 13 km/h
Temperatuur: 6°C
Voelt als: 3°C
Dauwpunt: 4°C
Vochtigheid: 87%
Barometer: 1040 hPa
Bewolking: Bewolking
Zicht: meer dan 10 km
Bewolking: Grotendeels bewolkt 1000 ft,
Bewolking 1200 ft
EHKV 211425Z AUTO VRB07KT 9999 BKN010 OVC012 06/04 Q1040
EHMG - L9-Ff-1 Sea, Netherlands
Afstand tot: N 101 km
Gewijzigd: 21-Jan-2020 15:25
Bewolking  
Bewolking  
   Wind: Westen 22.2 km/h
Wind: Westen 22.2 km/h
Temperatuur: 7°C
Voelt als: 3°C
Dauwpunt: 4°C
Vochtigheid: 81%
Barometer: 1039 hPa
Bewolking: Bewolking
Zicht: meer dan 10 km
Bewolking: Grotendeels bewolkt 1300 ft,
Bewolking 1500 ft
EHMG 211425Z AUTO 26012KT 9999 BKN013 OVC015 07/04 Q1039
EHDL - Deelen Rnlafb, Netherlands
Afstand tot: ZO 102 km
Gewijzigd: 21-Jan-2020 15:30
Bevriezing, Mist, Bewolking  
Bevriezing, Mist, Bewolking  
   Wind: varieert 7.4 km/h
Wind: varieert 7.4 km/h
Temperatuur: 0°C
Voelt als: -3°C
Dauwpunt: 0°C
Vochtigheid: 100%
Barometer: 1040 hPa
Bewolking: Bewolking
Zicht: 0 km
Bewolking: Bewolking
EHDL 211430Z AUTO VRB04KT 0250 FZFG VV000 00/00 Q1040 RED
EHPG - P11-B Sea, Netherlands
Afstand tot: WZW 106 km
Gewijzigd: 21-Jan-2020 15:25
  
  
   Wind: Kalm
Wind: Kalm
EHPG 211425Z AUTO ///12KT 8000 FEW011 07/04 Q1039
EHMA - Awg-1 Sea, Netherlands
Afstand tot: NO 116 km
Gewijzigd: 21-Jan-2020 15:25
Bewolking  
Bewolking  
   Wind: Westen 27.8 km/h
Wind: Westen 27.8 km/h
Temperatuur: 6°C
Voelt als: 2°C
Dauwpunt: 3°C
Vochtigheid: 81%
Barometer: 1038 hPa
Bewolking: Bewolking
Zicht: meer dan 10 km
Bewolking: Gedeeltelijk bewolkt 1300 ft,
Bewolking 1500 ft
EHMA 211425Z AUTO 28015KT 9999 SCT013 OVC015 06/03 Q1038
EHSC - Goeree Le Sea, Netherlands
Afstand tot: ZW 116 km
Gewijzigd: 21-Jan-2020 15:25
Nevel  
Nevel  
   Wind: ZW 22.2 km/h
Wind: ZW 22.2 km/h
Temperatuur: 5°C
Voelt als: 1°C
Dauwpunt: 5°C
Vochtigheid: 100%
Barometer: 1040 hPa
Zicht: 4 km
EHSC 211425Z AUTO 22012KT 3900 BR ///////// 05/05 Q1040 W08/H5
EHJR - K13-A Sea, Netherlands
Afstand tot: WNW 120 km
Gewijzigd: 21-Jan-2020 15:25
  
  
   Wind: WNW 18.5 km/h
Wind: WNW 18.5 km/h
Temperatuur: 6°C
Voelt als: 3°C
Dauwpunt: 4°C
Vochtigheid: 87%
Barometer: 1039 hPa
EHJR 211425Z AUTO 30010KT //// // ///////// 06/04 Q1039 RE// W08/H9
EHGG - Groningen/Eelde, Netherlands
Afstand tot: ONO 126 km
Gewijzigd: 21-Jan-2020 15:25
Grotendeels bewolkt  
Grotendeels bewolkt  
   Wind: WZW 16.7 km/h
Wind: WZW 16.7 km/h
Temperatuur: 6°C
Voelt als: 3°C
Dauwpunt: 4°C
Vochtigheid: 87%
Barometer: 1039 hPa
Bewolking: Grotendeels bewolkt
Zicht: 7 km
Bewolking: Licht bewolkt 900 ft,
Gedeeltelijk bewolkt 1100 ft,
Grotendeels bewolkt 1300 ft
EHGG 211425Z AUTO 25009KT 7000 FEW009 SCT011 BKN013 06/04 Q1039 BECMG BKN015
EHGR - Gilze-Rijen Rnla, Netherlands
Afstand tot: Z 128 km
Gewijzigd: 21-Jan-2020 15:42
Mist, Bewolking  
Mist, Bewolking  
   Wind: WZW 5.6 km/h
Wind: WZW 5.6 km/h
Temperatuur: 1°C
Voelt als: -1°C
Dauwpunt: 1°C
Vochtigheid: 100%
Barometer: 1041 hPa
Bewolking: Bewolking
Zicht: 1 km
Bewolking: Bewolking 100 ft
EHGR 211442Z AUTO 24003KT 100V180 0450 R28/0550D FG VV001 01/01 Q1041 RED 1500 BR SCT001 BKN002 TEMPO 0700 FG BKN001
EHSA - Euro Platform, Netherlands
Afstand tot: ZW 130 km
Gewijzigd: 21-Jan-2020 15:25
  
  
   Wind: WZW 16.7 km/h
Wind: WZW 16.7 km/h
Temperatuur: 8°C
Voelt als: 5°C
Dauwpunt: 4°C
Vochtigheid: 76%
Barometer: 1040 hPa
Zicht: meer dan 10 km
EHSA 211425Z AUTO 24009KT 9999 ///////// 08/04 Q1040 W06/H6
EHVK - Volkel Rnlafb, Netherlands
Afstand tot: ZZO 135 km
Gewijzigd: 21-Jan-2020 15:33
Nevel, Bewolking  
Nevel, Bewolking  
   Wind: varieert 3.7 km/h
Wind: varieert 3.7 km/h
Temperatuur: 0°C
Dauwpunt: 0°C
Vochtigheid: 100%
Barometer: 1041 hPa
Bewolking: Bewolking
Zicht: 1 km
Bewolking: Bewolking 100 ft
EHVK 211433Z AUTO VRB02KT 1300 R24R/1900D BR OVC001 00/00 Q1041 RED VRB02KT 2000 BR OVC001 BECMG BKN002 OVC003
EHWO - Woensdrecht Rnla, Netherlands
Afstand tot: ZZW 144 km
Gewijzigd: 21-Jan-2020 15:37
Nevel, Bewolking  
Nevel, Bewolking  
   Wind: Westen 7.4 km/h
Wind: Westen 7.4 km/h
Temperatuur: 2°C
Voelt als: 0°C
Dauwpunt: 1°C
Vochtigheid: 93%
Barometer: 1041 hPa
Bewolking: Bewolking
Zicht: 1 km
Bewolking: Grotendeels bewolkt 100 ft,
Bewolking 200 ft
EHWO 211437Z AUTO 26004KT 180V350 1100 BR BKN001 OVC002 02/01 Q1041 RED
EHEH - Eindhoven Rnlafb, Netherlands
Afstand tot: ZZO 146 km
Gewijzigd: 21-Jan-2020 15:38
Nevel, Bewolking  
Nevel, Bewolking  
   Wind: varieert 3.7 km/h
Wind: varieert 3.7 km/h
Temperatuur: 0°C
Dauwpunt: 0°C
Vochtigheid: 100%
Barometer: 1041 hPa
Bewolking: Bewolking
Zicht: 2 km
Bewolking: Bewolking 100 ft
EHEH 211438Z AUTO VRB02KT 1700 R21/1600D BR OVC001 00/M00 Q1041 RED 20004KT 1200 BR OVC001 TEMPO 2500 BKN002 OVC003 RMK LVP BRAVO
EDLV - Niederrhein, Germany
Afstand tot: ZO 154 km
Gewijzigd: 21-Jan-2020 15:20
Mist, Grotendeels bewolkt  
Mist, Grotendeels bewolkt  
   Wind: varieert 5.6 km/h
Wind: varieert 5.6 km/h
Temperatuur: 0°C
Voelt als: -2°C
Dauwpunt: 0°C
Vochtigheid: 100%
Barometer: 1041 hPa
Bewolking: Grotendeels bewolkt
Zicht: 1 km
Bewolking: Grotendeels bewolkt 100 ft
EDLV 211420Z VRB03KT 0700 R27/0800V1900U FG BKN001 00/M00 Q1041
 

Script ontwikkeld door  Saratoga-weather.org Aangepast voor de template door  Weerstation Leuven

U vindt ons ook hier:

Vereniging voor Weerkunde en Klimatologie

Het Weer Aktueel

WOW Nederland KNMI

UK Metoffice

European Weather Network

WeatherCloud

Weather Underground

Benelux Weer Netwerk

AWEKAS

WeatherlinkIP

Citizen Weather Observer Program (CWOP)

HAMweather, WeatherForYou, PWS Weather

        

Apparatuur in gebruik:

Weerstation
Davis - Vantage Veu

Weerprogramma
Meteobridge

Weercomputer
Carambola2 - MeteroBridge Pro (black)

Webleverancier
1Eurohosting

Hardwareleverancier 1
Uurwerk- & Meteospecialist Vlasma

Hardwareleverancier 2
Weerhuisje

Davis - Vantage Veu

Meteobridge

Carambola2 - MeteroBridge Pro (black)

1Eurohosting

Uurwerk- & Meteospecialist Vlasma

Weerhuisje


Alles over het weer rondom het weerstation van Meteo Oudkarspel, vind je hier. Dus alles onder 1 dak.

Everything about the weather around the Meteo Oudkarspel weather station can be found here. So everything under one roof..

Dus kom regelmatig terug, So come back regularly.


# #---------------------- version history # 3.20 2015-10-12 release 2.8b version